Aptos, CA

4:30 PM PST on December 18, 2014 (GMT -0800)
Seacliff Beach | Change Station
CLOSE
Current Station
Personal Weather Station
Location: Aptos, CA
Elevation: 100 ft
Nearby Weather Stations

Elev 100 ft 36.97 °N, 121.91 °W | Updated 2 seconds ago

Clear
Clear
59.3 °F
Feels Like 59.3 °F
N
0.0
Wind Variable Wind from North
Gusts 0.0 mph

Today
High -- | Low -- °F
--% Chance of Precip.
Yesterday
High -- | Low -- °F
Precip. -- in
7:15 AM 4:53 PM
Waning Crescent, 11% visible
Pressure 30.15 in
Visibility 10.0 miles
Clouds Clear
Dew Point 55 °F
Humidity 86%
Rainfall 0.07 in
Snow Depth Not available.
UV 0 out of 12
Pollen 3.50 out of 12
Air Quality Not available.
Flu Activity Not available.
METAR KWVI 182353Z AUTO 00000KT 10SM CLR 16/11 A3015 RMK AO2 SLP208 60000 T01560111 10167 20139 56008

More Conditions Fewer Conditions

Pressure 30.15 in
Visibility 10.0 miles
Clouds Clear
Dew Point 55 °F
Humidity 86%
Rainfall 0.07 in
Snow Depth Not available.
UV 0 out of 12
Pollen 3.50 out of 12
Air Quality Not available.
Flu Activity Not available.
METAR KWVI 182353Z AUTO 00000KT 10SM CLR 16/11 A3015 RMK AO2 SLP208 60000 T01560111 10167 20139 56008

More Conditions Fewer Conditions

10-Day Weather Forecast

Almanac

Astronomy

Dec. 18, 2014 Rise Set
Actual Time
Civil Twilight
Nautical Twilight
Astronomical Twilight
Moon
Length of Visible Light
Length of Day
Tomorrow will be .
, % of the Moon is Illuminated

Today's Extremes

State Highs State Lows

Community

WunderPhotos

Upload Photos

1,779,016 photos uploaded!

WunderBlogs® & News

Nearby

Air Quality

  Air Quality AQ Index Pollutant
Not available.

Snow Depth

Station Depth Elevation

Earthquake Activity

City Distance Mag. Time & Date
Minimum magnitude displayed is 2.5.

Coastal Water Temperatures

Place Temperature

Nearby Weather Stations